Time;durP1;ratioP1;P1;durP2;ratioP2;P2;SDS_P1;SDS_P2;PMS_P1;PMS_P2;Temp;Humidity;BMP_temperature;BMP_pressure;BME280_temperature;BME280_humidity;BME280_pressure;Samples;Min_cycle;Max_cycle;Signal;HPM_P1;HPM_P2
2023/07/11 00:00:14;;;;;;;21.00;19.60;;;19.00;1.00;;;;;;5074524;28;20689;-53
2023/07/11 00:02:41;;;;;;;20.33;18.83;;;18.90;1.00;;;;;;5079158;28;20921;-54
2023/07/11 00:05:08;;;;;;;20.23;18.93;;;18.90;1.00;;;;;;5078893;28;20883;-57
2023/07/11 00:07:33;;;;;;;20.50;19.10;;;18.80;1.00;;;;;;5075634;28;21254;-52
2023/07/11 00:09:59;;;;;;;20.40;19.00;;;18.80;1.00;;;;;;5082266;28;20423;-49
2023/07/11 00:12:28;;;;;;;19.83;18.53;;;18.80;1.00;;;;;;5081557;28;20176;-51
2023/07/11 00:14:55;;;;;;;20.63;19.30;;;18.80;1.00;;;;;;5074153;28;20601;-51
2023/07/11 00:17:21;;;;;;;20.10;18.80;;;18.70;1.00;;;;;;5081893;28;20410;-53
2023/07/11 00:19:50;;;;;;;20.73;19.13;;;18.70;1.00;;;;;;5072726;28;20410;-49
2023/07/11 00:22:16;;;;;;;20.63;19.23;;;18.70;1.00;;;;;;5081436;28;20736;-48
2023/07/11 00:24:42;;;;;;;20.67;19.17;;;18.60;1.00;;;;;;5079119;28;20478;-53
2023/07/11 00:27:10;;;;;;;20.30;18.90;;;18.60;1.00;;;;;;5076757;28;20487;-52
2023/07/11 00:29:35;;;;;;;20.17;18.87;;;18.50;1.00;;;;;;5074157;28;20426;-47
2023/07/11 00:32:01;;;;;;;19.83;18.53;;;18.50;1.00;;;;;;5081103;28;20434;-52
2023/07/11 00:34:26;;;;;;;21.13;19.63;;;18.50;1.00;;;;;;5070452;28;20199;-48
2023/07/11 00:36:52;;;;;;;20.43;19.13;;;18.50;1.00;;;;;;5071014;28;20246;-50
2023/07/11 00:39:19;;;;;;;21.23;19.73;;;18.40;1.00;;;;;;5076771;28;20678;-54
2023/07/11 00:41:45;;;;;;;21.70;20.20;;;18.40;1.00;;;;;;5075464;28;20669;-55
2023/07/11 00:44:13;;;;;;;20.47;19.17;;;18.40;1.00;;;;;;5080512;28;20423;-50
2023/07/11 00:46:40;;;;;;;21.90;20.40;;;18.30;1.00;;;;;;5080952;28;20773;-50
2023/07/11 00:49:08;;;;;;;20.93;19.47;;;18.30;1.00;;;;;;5076314;28;20860;-50
2023/07/11 00:51:38;;;;;;;20.60;19.00;;;18.30;1.00;;;;;;5069468;28;20444;-54
2023/07/11 00:54:07;;;;;;;20.83;19.33;;;18.30;1.00;;;;;;5065824;28;20965;-48
2023/07/11 00:56:38;;;;;;;21.43;19.93;;;18.30;1.00;;;;;;5072610;28;20465;-46
2023/07/11 00:59:03;;;;;;;20.80;19.40;;;18.30;1.00;;;;;;5073727;28;20565;-47
2023/07/11 01:01:29;;;;;;;21.13;19.63;;;18.20;1.00;;;;;;5072539;28;21122;-53
2023/07/11 01:03:55;;;;;;;21.13;19.50;;;18.20;1.00;;;;;;5075529;28;20173;-47
2023/07/11 01:06:24;;;;;;;21.43;20.00;;;18.20;1.00;;;;;;5073316;28;20419;-52
2023/07/11 01:08:52;;;;;;;21.03;19.53;;;18.20;1.00;;;;;;5080459;28;20627;-49
2023/07/11 01:11:19;;;;;;;21.60;20.10;;;18.10;1.00;;;;;;5067097;28;20917;-49
2023/07/11 01:13:45;;;;;;;21.37;19.77;;;18.10;1.00;;;;;;5065708;28;20487;-52
2023/07/11 01:16:10;;;;;;;21.43;19.93;;;18.20;1.00;;;;;;5078860;28;21229;-51
2023/07/11 01:18:36;;;;;;;21.57;19.70;;;18.20;1.00;;;;;;5073823;28;20358;-51
2023/07/11 01:21:04;;;;;;;20.57;19.17;;;18.10;1.00;;;;;;5072783;28;20216;-50
2023/07/11 01:23:30;;;;;;;20.43;19.10;;;18.10;1.00;;;;;;5063307;28;20562;-51
2023/07/11 01:26:05;;;;;;;21.73;20.20;;;18.10;1.00;;;;;;5069500;28;20614;-55
2023/07/11 01:28:30;;;;;;;20.50;19.10;;;18.10;1.00;;;;;;5068843;28;20484;-52
2023/07/11 01:30:56;;;;;;;21.07;19.57;;;18.10;1.00;;;;;;5065242;28;20933;-55
2023/07/11 01:33:24;;;;;;;21.00;19.30;;;18.10;12.00;;;;;;5065942;28;20176;-51
2023/07/11 01:35:54;;;;;;;20.57;19.07;;;18.00;28.20;;;;;;5070997;28;20196;-53
2023/07/11 01:38:21;;;;;;;21.10;19.50;;;18.00;32.00;;;;;;5065425;28;20414;-55
2023/07/11 01:40:48;;;;;;;19.80;18.50;;;17.90;36.90;;;;;;5104676;27;20428;-47
2023/07/11 01:43:16;;;;;;;20.57;19.27;;;17.90;41.10;;;;;;5072932;28;20427;-53
2023/07/11 01:45:42;;;;;;;20.87;19.47;;;17.90;45.70;;;;;;5068032;28;20500;-50
2023/07/11 01:48:08;;;;;;;21.00;19.50;;;17.90;54.00;;;;;;5069793;28;21311;-47
2023/07/11 01:50:34;;;;;;;20.53;19.10;;;17.90;62.50;;;;;;5069468;28;20441;-49
2023/07/11 01:52:59;;;;;;;22.20;20.50;;;17.80;72.00;;;;;;5076564;28;20783;-49
2023/07/11 01:55:25;;;;;;;20.33;18.73;;;17.80;84.20;;;;;;5074372;28;20438;-52
2023/07/11 01:57:51;;;;;;;21.33;19.67;;;17.80;90.00;;;;;;5072996;28;20540;-53
2023/07/11 02:00:16;;;;;;;20.30;18.90;;;17.70;91.20;;;;;;5073380;28;20196;-44
2023/07/11 02:02:42;;;;;;;20.20;18.70;;;17.70;91.20;;;;;;5072352;28;20650;-48
2023/07/11 02:05:08;;;;;;;21.20;19.60;;;17.70;92.40;;;;;;5079280;28;20282;-49
2023/07/11 02:07:34;;;;;;;20.90;19.40;;;17.60;94.70;;;;;;5079227;28;20181;-51
2023/07/11 02:09:59;;;;;;;22.57;20.93;;;17.60;96.50;;;;;;5078875;28;20505;-53
2023/07/11 02:12:25;;;;;;;20.87;19.37;;;17.60;98.60;;;;;;5075583;28;20542;-46
2023/07/11 02:14:50;;;;;;;20.80;19.30;;;17.50;99.90;;;;;;5075927;28;20188;-52
2023/07/11 02:17:16;;;;;;;21.97;20.37;;;17.50;99.10;;;;;;5072812;28;20647;-56
2023/07/11 02:19:46;;;;;;;20.60;19.10;;;17.40;98.80;;;;;;5073612;28;20229;-52
2023/07/11 02:22:12;;;;;;;22.40;20.80;;;17.50;99.90;;;;;;5065366;28;21036;-52
2023/07/11 02:24:39;;;;;;;20.43;19.03;;;17.40;99.90;;;;;;5077327;28;20469;-49
2023/07/11 02:27:05;;;;;;;21.47;19.97;;;17.30;99.90;;;;;;5076068;28;20466;-47
2023/07/11 02:29:31;;;;;;;21.53;19.93;;;17.30;99.90;;;;;;5071532;28;20506;-52
2023/07/11 02:31:56;;;;;;;21.70;20.10;;;17.30;99.90;;;;;;5077340;28;20778;-47
2023/07/11 02:34:22;;;;;;;22.83;21.13;;;17.20;99.90;;;;;;5068168;28;20260;-51
2023/07/11 02:36:47;;;;;;;22.30;20.70;;;17.20;99.90;;;;;;5069253;28;20199;-47
2023/07/11 02:39:13;;;;;;;20.90;19.30;;;17.20;99.90;;;;;;5067593;28;20185;-48
2023/07/11 02:41:39;;;;;;;20.97;19.40;;;17.10;99.90;;;;;;5060432;28;20258;-51
2023/07/11 02:44:05;;;;;;;22.13;20.33;;;17.10;99.90;;;;;;5062257;28;20220;-52
2023/07/11 02:46:31;;;;;;;21.80;20.20;;;17.10;99.90;;;;;;5061369;28;20216;-51
2023/07/11 02:48:57;;;;;;;22.00;20.50;;;17.10;99.90;;;;;;5062767;28;20874;-50
2023/07/11 02:51:23;;;;;;;21.17;19.50;;;17.00;99.90;;;;;;5058327;28;20500;-51
2023/07/11 02:53:49;;;;;;;21.40;19.90;;;17.00;99.90;;;;;;5065959;28;20191;-50
2023/07/11 02:56:15;;;;;;;20.63;19.17;;;17.00;99.90;;;;;;5068809;28;20925;-50
2023/07/11 02:58:41;;;;;;;21.40;19.80;;;17.00;99.90;;;;;;5073628;28;20222;-50
2023/07/11 03:01:07;;;;;;;20.50;18.90;;;17.00;99.90;;;;;;5074225;28;20410;-49
2023/07/11 03:03:33;;;;;;;21.60;20.10;;;16.90;99.90;;;;;;5069710;28;20592;-53
2023/07/11 03:05:58;;;;;;;22.17;20.50;;;17.00;99.90;;;;;;5083035;28;20212;-52
2023/07/11 03:08:24;;;;;;;21.03;19.43;;;16.90;99.90;;;;;;5076592;28;20185;-46
2023/07/11 03:10:50;;;;;;;20.80;19.30;;;16.90;99.90;;;;;;5065350;28;20640;-52
2023/07/11 03:13:17;;;;;;;22.90;21.20;;;16.90;99.90;;;;;;5080341;28;20450;-54
2023/07/11 03:15:43;;;;;;;21.40;19.87;;;17.00;99.90;;;;;;5077446;28;20434;-50
2023/07/11 03:18:12;;;;;;;23.70;21.83;;;16.90;99.90;;;;;;5081745;28;20465;-44
2023/07/11 03:20:39;;;;;;;21.20;19.70;;;17.00;99.90;;;;;;5066370;28;20173;-42
2023/07/11 03:23:06;;;;;;;21.10;19.40;;;16.90;99.90;;;;;;5063358;28;20442;-46
2023/07/11 03:25:32;;;;;;;21.07;19.50;;;16.90;99.90;;;;;;5071326;28;20482;-41
2023/07/11 03:27:57;;;;;;;20.23;18.83;;;17.00;99.90;;;;;;5078806;28;20831;-43
2023/07/11 03:30:23;;;;;;;20.77;19.27;;;17.00;99.90;;;;;;5081936;28;20245;-54
2023/07/11 03:32:49;;;;;;;21.63;19.93;;;17.00;99.90;;;;;;5081971;28;20220;-53
2023/07/11 03:35:14;;;;;;;21.30;19.73;;;17.00;99.90;;;;;;5076674;28;20193;-46
2023/07/11 03:37:40;;;;;;;21.17;19.67;;;17.00;99.90;;;;;;5071185;28;20527;-51
2023/07/11 03:40:08;;;;;;;20.60;19.20;;;17.00;99.90;;;;;;5067008;28;20206;-48
2023/07/11 03:42:33;;;;;;;20.93;19.53;;;17.10;99.90;;;;;;5076700;28;20650;-49
2023/07/11 03:44:59;;;;;;;20.90;19.40;;;17.10;99.90;;;;;;5070222;28;20429;-52
2023/07/11 03:47:25;;;;;;;20.73;19.13;;;17.10;99.90;;;;;;5081006;28;20188;-47
2023/07/11 03:49:50;;;;;;;20.23;18.73;;;17.10;99.90;;;;;;5082131;28;20176;-45
2023/07/11 03:52:16;;;;;;;20.80;19.20;;;17.20;99.90;;;;;;5065549;28;20185;-42
2023/07/11 03:54:41;;;;;;;20.00;18.60;;;17.20;99.90;;;;;;5071530;28;20749;-42
2023/07/11 03:57:07;;;;;;;21.53;20.00;;;17.20;99.90;;;;;;5077706;28;20189;-46
2023/07/11 03:59:32;;;;;;;20.83;19.43;;;17.20;98.90;;;;;;5073903;28;20238;-44
2023/07/11 04:01:58;;;;;;;21.27;19.77;;;17.20;96.70;;;;;;5073276;28;20555;-43
2023/07/11 04:04:24;;;;;;;20.70;19.10;;;17.30;96.00;;;;;;5076506;28;20192;-43
2023/07/11 04:06:49;;;;;;;21.73;20.13;;;17.30;91.80;;;;;;5064267;28;20574;-44
2023/07/11 04:09:15;;;;;;;20.07;18.57;;;17.20;89.30;;;;;;5066552;28;20597;-44
2023/07/11 04:11:40;;;;;;;19.50;18.00;;;17.20;89.10;;;;;;5059923;28;20189;-41
2023/07/11 04:14:09;;;;;;;20.63;19.20;;;17.20;87.10;;;;;;5069888;28;20302;-42
2023/07/11 04:16:34;;;;;;;20.17;18.67;;;17.20;83.80;;;;;;5061992;28;20318;-43
2023/07/11 04:19:00;;;;;;;20.47;19.07;;;17.20;81.80;;;;;;5061028;28;20439;-44
2023/07/11 04:21:25;;;;;;;20.53;19.03;;;17.20;79.90;;;;;;5062693;28;20251;-45
2023/07/11 04:23:51;;;;;;;19.17;17.77;;;17.20;77.90;;;;;;5079136;28;20196;-57
2023/07/11 04:26:17;;;;;;;19.67;18.30;;;17.20;77.00;;;;;;5066758;28;20291;-50
2023/07/11 04:28:42;;;;;;;20.63;19.23;;;17.20;76.80;;;;;;5068750;28;20193;-52
2023/07/11 04:31:08;;;;;;;19.87;18.37;;;17.20;77.50;;;;;;5078650;28;20204;-47
2023/07/11 04:33:34;;;;;;;20.77;19.27;;;17.20;73.80;;;;;;5070353;28;20556;-51
2023/07/11 04:36:14;;;;;;;20.70;19.07;;;17.20;74.00;;;;;;5066106;28;20200;-50
2023/07/11 04:38:40;;;;;;;20.53;19.07;;;17.30;75.70;;;;;;5069689;28;20194;-51
2023/07/11 04:41:06;;;;;;;20.40;18.90;;;17.30;76.40;;;;;;5079261;28;20914;-52
2023/07/11 04:43:36;;;;;;;20.77;19.37;;;17.30;62.00;;;;;;5080220;28;20809;-48
2023/07/11 04:46:05;;;;;;;20.20;18.80;;;17.40;50.00;;;;;;5081115;28;21027;-51
2023/07/11 04:48:32;;;;;;;21.97;20.37;;;17.40;40.40;;;;;;5081387;28;20828;-51
2023/07/11 04:51:02;;;;;;;20.23;18.90;;;17.40;35.10;;;;;;5079844;28;20418;-47
2023/07/11 04:53:29;;;;;;;19.80;18.50;;;17.40;29.40;;;;;;5063589;28;20562;-51
2023/07/11 04:56:09;;;;;;;20.07;18.67;;;17.40;24.60;;;;;;5078997;28;20419;-53
2023/07/11 04:58:35;;;;;;;21.00;19.50;;;17.40;22.40;;;;;;5080891;28;20484;-51
2023/07/11 05:01:19;;;;;;;19.63;18.23;;;17.50;13.60;;;;;;5072427;28;20473;-49
2023/07/11 05:03:45;;;;;;;20.50;19.10;;;17.50;9.30;;;;;;5064633;28;20426;-49
2023/07/11 05:06:14;;;;;;;21.80;20.23;;;17.50;5.00;;;;;;5080388;28;20473;-52
2023/07/11 05:08:40;;;;;;;20.50;19.20;;;17.60;1.00;;;;;;5080804;28;20494;-47
2023/07/11 05:11:12;;;;;;;19.20;17.90;;;17.60;1.00;;;;;;5062434;28;20776;-52
2023/07/11 05:13:39;;;;;;;19.50;18.20;;;17.70;1.00;;;;;;5078176;28;20421;-47
2023/07/11 05:16:07;;;;;;;18.80;17.60;;;17.70;1.00;;;;;;5080515;28;20487;-52
2023/07/11 05:18:34;;;;;;;19.87;18.30;;;17.80;1.00;;;;;;5078984;28;20422;-55
2023/07/11 05:21:01;;;;;;;19.50;18.13;;;17.80;1.00;;;;;;5080009;28;20414;-48
2023/07/11 05:23:29;;;;;;;19.03;17.83;;;17.90;1.00;;;;;;5080301;28;20410;-51
2023/07/11 05:25:55;;;;;;;19.67;18.37;;;18.00;1.00;;;;;;5080003;28;20846;-54
2023/07/11 05:28:22;;;;;;;19.20;18.00;;;18.00;1.00;;;;;;5079219;28;20410;-48
2023/07/11 05:30:48;;;;;;;19.50;18.10;;;18.10;1.00;;;;;;5077928;28;20798;-50
2023/07/11 05:33:15;;;;;;;19.27;17.87;;;18.20;1.00;;;;;;5075589;28;20505;-52
2023/07/11 05:35:47;;;;;;;18.43;17.23;;;18.30;1.00;;;;;;5069152;28;20245;-49
2023/07/11 05:38:16;;;;;;;19.57;18.27;;;18.30;1.00;;;;;;5080581;28;20421;-51
2023/07/11 05:40:41;;;;;;;17.67;16.57;;;18.40;1.00;;;;;;5079852;28;20517;-52
2023/07/11 05:43:07;;;;;;;17.73;16.60;;;18.50;1.00;;;;;;5079858;28;20429;-54
2023/07/11 05:45:33;;;;;;;18.63;17.30;;;18.60;1.00;;;;;;5080512;28;20259;-51
2023/07/11 05:47:59;;;;;;;18.20;17.00;;;18.70;99.90;;;;;;5079820;28;20619;-52
2023/07/11 05:50:26;;;;;;;18.47;17.27;;;18.80;99.90;;;;;;5073063;28;20177;-52
2023/07/11 05:52:51;;;;;;;18.13;17.00;;;18.90;99.90;;;;;;5062585;28;20598;-54
2023/07/11 05:55:17;;;;;;;18.47;17.10;;;19.00;99.90;;;;;;5069636;28;20560;-46
2023/07/11 05:57:42;;;;;;;18.07;16.97;;;19.10;99.90;;;;;;5075952;28;20188;-51
2023/07/11 06:00:09;;;;;;;18.40;16.83;;;19.20;14.40;;;;;;5069207;28;20250;-56
2023/07/11 06:02:35;;;;;;;17.33;16.23;;;19.30;1.00;;;;;;5079655;28;20324;-47
2023/07/11 06:05:01;;;;;;;18.07;16.97;;;19.40;1.00;;;;;;5079276;28;20964;-52
2023/07/11 06:07:28;;;;;;;17.83;16.73;;;19.50;99.90;;;;;;5079237;28;20425;-50
2023/07/11 06:09:55;;;;;;;18.43;17.03;;;19.70;99.90;;;;;;5079480;28;20184;-49
2023/07/11 06:12:21;;;;;;;18.20;17.00;;;19.70;1.00;;;;;;5079623;28;20436;-46
2023/07/11 06:14:48;;;;;;;17.70;16.60;;;19.80;1.00;;;;;;5079374;28;20414;-53
2023/07/11 06:17:14;;;;;;;17.60;16.60;;;19.90;93.70;;;;;;5079326;28;20478;-51
2023/07/11 06:19:40;;;;;;;18.07;16.87;;;20.00;1.00;;;;;;5079100;28;20434;-54
2023/07/11 06:22:06;;;;;;;16.93;15.73;;;20.10;99.90;;;;;;5075856;28;20940;-52
2023/07/11 06:24:31;;;;;;;16.37;15.43;;;20.20;99.90;;;;;;5079973;28;20239;-49
2023/07/11 06:26:57;;;;;;;16.70;15.70;;;20.30;1.00;;;;;;5073236;28;20213;-50
2023/07/11 06:29:23;;;;;;;17.50;16.50;;;20.40;99.90;;;;;;5060016;28;20571;-43
2023/07/11 06:31:48;;;;;;;16.97;15.90;;;20.40;1.00;;;;;;5060428;28;20192;-48
2023/07/11 06:34:14;;;;;;;16.40;15.40;;;20.50;1.00;;;;;;5061863;28;20297;-46
2023/07/11 06:36:40;;;;;;;16.60;15.60;;;20.60;1.00;;;;;;5060352;28;20598;-48
2023/07/11 06:39:06;;;;;;;16.40;15.37;;;20.70;99.90;;;;;;5066398;28;20184;-56
2023/07/11 06:41:32;;;;;;;15.63;14.63;;;20.80;1.00;;;;;;5074764;28;20177;-52
2023/07/11 06:43:58;;;;;;;16.43;15.53;;;20.90;1.00;;;;;;5085554;28;20466;-50
2023/07/11 06:46:23;;;;;;;16.40;15.40;;;21.00;1.00;;;;;;5084846;28;20569;-46
2023/07/11 06:48:49;;;;;;;15.63;14.73;;;21.10;99.90;;;;;;5086239;28;20189;-51
2023/07/11 06:51:14;;;;;;;15.80;14.77;;;21.20;99.90;;;;;;5085032;28;21014;-55
2023/07/11 06:53:40;;;;;;;14.90;14.10;;;21.30;29.70;;;;;;5082320;28;20184;-54
2023/07/11 06:56:06;;;;;;;14.70;13.80;;;21.40;1.00;;;;;;5085570;28;20180;-56
2023/07/11 06:58:32;;;;;;;14.77;13.93;;;21.50;1.00;;;;;;5085798;28;20242;-49
2023/07/11 07:01:04;;;;;;;13.63;12.90;;;21.60;1.00;;;;;;5085624;28;20192;-53
2023/07/11 07:03:31;;;;;;;15.73;14.83;;;21.70;99.90;;;;;;5077454;28;20263;-52
2023/07/11 07:06:02;;;;;;;14.90;14.10;;;21.80;99.90;;;;;;5079771;28;20527;-46
2023/07/11 07:08:28;;;;;;;15.20;14.17;;;21.90;99.90;;;;;;5085019;28;20916;-55
2023/07/11 07:10:54;;;;;;;15.00;13.90;;;22.00;99.90;;;;;;5085826;28;20431;-52
2023/07/11 07:13:22;;;;;;;13.03;12.23;;;22.20;99.90;;;;;;5085295;28;20484;-52
2023/07/11 07:15:52;;;;;;;13.67;12.97;;;22.20;1.00;;;;;;5078368;28;20184;-52
2023/07/11 07:18:18;;;;;;;13.97;13.27;;;22.30;1.00;;;;;;5085697;28;20910;-50
2023/07/11 07:20:45;;;;;;;13.83;13.03;;;22.40;1.00;;;;;;5085425;28;20426;-52
2023/07/11 07:23:11;;;;;;;13.80;13.00;;;22.50;1.00;;;;;;5085318;28;20525;-50
2023/07/11 07:25:37;;;;;;;13.33;12.63;;;22.60;1.00;;;;;;5085427;28;20621;-46
2023/07/11 07:28:03;;;;;;;13.10;12.30;;;22.70;1.00;;;;;;5084955;28;20498;-54
2023/07/11 07:30:29;;;;;;;13.33;12.63;;;22.90;1.00;;;;;;5085408;28;20612;-51
2023/07/11 07:32:54;;;;;;;14.40;13.70;;;23.00;1.00;;;;;;5069008;28;20488;-49
2023/07/11 07:35:20;;;;;;;13.13;12.43;;;23.10;1.00;;;;;;5059397;28;20250;-51
2023/07/11 07:37:46;;;;;;;13.53;12.80;;;23.20;1.00;;;;;;5074047;28;20579;-51
2023/07/11 07:40:12;;;;;;;13.40;12.70;;;23.40;1.00;;;;;;5073788;28;20275;-54
2023/07/11 07:42:37;;;;;;;13.20;12.50;;;23.50;1.00;;;;;;5084452;28;20501;-52
2023/07/11 07:45:04;;;;;;;12.90;12.30;;;23.60;1.00;;;;;;5085660;28;20619;-48
2023/07/11 07:47:29;;;;;;;13.60;12.90;;;23.70;99.90;;;;;;5085405;28;20632;-51
2023/07/11 07:49:55;;;;;;;14.33;11.93;;;23.80;99.90;;;;;;5085162;28;20509;-51
2023/07/11 07:52:21;;;;;;;12.03;11.33;;;23.90;99.90;;;;;;5080973;28;20188;-49
2023/07/11 07:54:47;;;;;;;13.10;12.40;;;23.90;99.90;;;;;;5072656;28;20932;-48
2023/07/11 07:57:13;;;;;;;12.80;12.00;;;23.90;99.90;;;;;;5075753;28;20414;-49
2023/07/11 07:59:38;;;;;;;11.60;11.00;;;24.00;99.90;;;;;;5080493;28;20494;-53
2023/07/11 08:02:06;;;;;;;12.00;11.40;;;24.10;99.90;;;;;;5071334;28;20246;-49
2023/07/11 08:04:31;;;;;;;12.17;11.47;;;24.30;99.90;;;;;;5068769;28;20180;-50
2023/07/11 08:06:57;;;;;;;12.70;12.10;;;24.40;99.90;;;;;;5081554;28;20869;-52
2023/07/11 08:09:23;;;;;;;12.83;12.20;;;24.60;99.90;;;;;;5081793;28;20188;-50
2023/07/11 08:11:49;;;;;;;13.70;13.00;;;24.70;99.90;;;;;;5081238;28;20658;-54
2023/07/11 08:14:15;;;;;;;12.17;11.47;;;24.80;99.90;;;;;;5081624;28;20605;-48
2023/07/11 08:16:40;;;;;;;12.53;11.93;;;25.00;99.90;;;;;;5081447;28;20411;-54
2023/07/11 08:19:06;;;;;;;13.43;12.63;;;25.20;99.90;;;;;;5081817;28;20193;-54
2023/07/11 08:21:33;;;;;;;11.70;11.10;;;25.30;99.90;;;;;;5081624;28;20191;-52
2023/07/11 08:23:58;;;;;;;11.90;11.33;;;25.60;99.90;;;;;;5081334;28;20575;-54
2023/07/11 08:26:25;;;;;;;12.60;11.90;;;25.60;99.90;;;;;;5078672;28;20455;-52
2023/07/11 08:28:51;;;;;;;11.40;10.80;;;25.70;99.90;;;;;;5080923;28;20177;-53
2023/07/11 08:31:17;;;;;;;12.30;11.80;;;25.90;99.90;;;;;;5076971;28;20461;-52
2023/07/11 08:33:43;;;;;;;12.03;11.50;;;26.00;99.90;;;;;;5081107;28;20974;-53
2023/07/11 08:36:09;;;;;;;12.73;12.07;;;26.10;99.90;;;;;;5081560;28;20188;-54
2023/07/11 08:38:35;;;;;;;12.03;11.53;;;26.10;99.90;;;;;;5072566;28;20427;-47
2023/07/11 08:41:28;;;;;;;12.07;11.37;;;26.30;99.90;;;;;;5076784;28;20587;-49
2023/07/11 08:44:00;;;;;;;12.40;11.80;;;26.30;99.90;;;;;;5080767;28;20725;-52
2023/07/11 08:46:27;;;;;;;11.93;11.33;;;26.50;99.90;;;;;;5080712;28;20510;-54
2023/07/11 08:49:00;;;;;;;10.67;10.13;;;26.60;99.90;;;;;;5081008;28;20403;-55
2023/07/11 08:51:38;;;;;;;11.53;10.93;;;26.80;99.90;;;;;;5081088;28;20398;-51
2023/07/11 08:54:27;;;;;;;10.53;9.97;;;26.90;99.90;;;;;;5072643;28;20776;-57
2023/07/11 08:56:55;;;;;;;10.77;10.20;;;27.00;99.90;;;;;;5079564;28;21462;-50
2023/07/11 08:59:41;;;;;;;10.00;9.50;;;27.20;99.90;;;;;;5078143;28;20797;-54
2023/07/11 09:02:09;;;;;;;11.23;10.63;;;27.40;99.90;;;;;;5079473;28;20483;-49
2023/07/11 09:04:45;;;;;;;10.37;9.87;;;27.50;99.90;;;;;;5080642;28;20425;-50
2023/07/11 09:07:23;;;;;;;11.50;10.90;;;27.50;99.90;;;;;;5080834;28;20454;-50
2023/07/11 09:09:49;;;;;;;11.50;11.00;;;27.80;99.90;;;;;;5080346;28;20422;-54
2023/07/11 09:12:33;;;;;;;11.40;10.90;;;28.10;99.90;;;;;;5080698;28;20407;-49
2023/07/11 09:15:13;;;;;;;10.60;10.10;;;28.40;99.90;;;;;;5081004;28;20487;-53
2023/07/11 09:18:03;;;;;;;12.20;11.47;;;28.60;99.90;;;;;;5079186;28;20442;-49
2023/07/11 09:21:09;;;;;;;11.60;11.10;;;28.90;99.90;;;;;;5080540;28;20419;-50
2023/07/11 09:23:43;;;;;;;10.90;10.40;;;29.10;99.90;;;;;;5056479;28;20427;-49
2023/07/11 09:26:16;;;;;;;10.83;10.33;;;29.60;99.90;;;;;;5068100;28;20675;-51
2023/07/11 09:28:44;;;;;;;11.13;10.63;;;30.00;99.90;;;;;;5076104;28;21408;-51
2023/07/11 09:31:17;;;;;;;11.27;10.67;;;30.30;99.90;;;;;;5079811;28;20711;-46
2023/07/11 09:33:51;;;;;;;11.73;11.20;;;30.70;99.90;;;;;;5079511;28;20410;-54
2023/07/11 09:36:33;;;;;;;11.03;10.53;;;31.10;99.90;;;;;;5078830;28;20421;-54
2023/07/11 09:39:18;;;;;;;11.10;10.60;;;31.70;99.90;;;;;;5068234;28;20443;-51
2023/07/11 09:42:08;;;;;;;11.33;10.83;;;32.10;99.90;;;;;;5068248;28;20418;-52
2023/07/11 09:44:33;;;;;;;11.67;11.17;;;32.50;99.90;;;;;;5079682;28;20410;-54
2023/07/11 09:47:16;;;;;;;11.07;10.57;;;33.00;99.90;;;;;;5079567;28;20487;-53
2023/07/11 09:49:44;;;;;;;11.13;10.63;;;33.30;99.90;;;;;;5067605;28;20542;-50
2023/07/11 09:52:16;;;;;;;10.27;9.77;;;33.60;99.90;;;;;;5079426;28;20501;-50
2023/07/11 09:54:44;;;;;;;11.30;10.80;;;33.80;99.90;;;;;;5070678;28;20955;-53
2023/07/11 09:57:11;;;;;;;10.30;9.90;;;34.20;99.90;;;;;;5076993;28;20747;-53
2023/07/11 09:59:36;;;;;;;11.07;10.63;;;34.80;99.90;;;;;;5067543;28;20421;-50
2023/07/11 10:02:04;;;;;;;11.40;10.90;;;35.20;99.90;;;;;;5069105;28;20758;-48
2023/07/11 10:04:31;;;;;;;11.47;10.90;;;35.60;99.90;;;;;;5067522;28;20181;-52
2023/07/11 10:07:03;;;;;;;11.30;10.80;;;36.00;99.90;;;;;;5079440;28;20861;-53
2023/07/11 10:09:36;;;;;;;11.77;11.20;;;36.20;99.90;;;;;;5079365;28;20438;-52
2023/07/11 10:12:11;;;;;;;10.90;10.40;;;36.60;99.90;;;;;;5079896;28;21078;-54
2023/07/11 10:14:41;;;;;;;10.23;9.83;;;37.10;99.90;;;;;;5078742;28;20413;-51
2023/07/11 10:17:40;;;;;;;11.83;11.33;;;37.30;99.90;;;;;;5079017;28;20422;-55
2023/07/11 10:20:16;;;;;;;11.70;11.20;;;37.30;99.90;;;;;;5056160;28;20445;-54
2023/07/11 10:22:46;;;;;;;11.87;11.27;;;37.40;99.90;;;;;;5078885;28;20494;-51
2023/07/11 10:25:21;;;;;;;12.60;12.00;;;37.20;99.90;;;;;;5078782;28;20477;-50
2023/07/11 10:28:02;;;;;;;10.57;10.13;;;37.80;99.90;;;;;;5074646;28;20433;-49
2023/07/11 10:30:32;;;;;;;12.30;11.70;;;38.20;99.90;;;;;;5077691;28;20952;-54
2023/07/11 10:33:25;;;;;;;11.10;10.60;;;38.50;1.00;;;;;;5078818;28;20865;-49
2023/07/11 10:36:03;;;;;;;11.40;10.90;;;38.60;99.90;;;;;;5076811;28;20430;-52
2023/07/11 10:38:43;;;;;;;11.70;11.17;;;38.50;99.90;;;;;;5071351;28;20418;-53
2023/07/11 10:41:18;;;;;;;11.70;11.20;;;38.60;99.90;;;;;;5075606;28;20414;-53
2023/07/11 10:43:44;;;;;;;11.73;11.23;;;38.80;99.90;;;;;;5078942;28;20429;-51
2023/07/11 10:46:18;;;;;;;12.00;11.50;;;39.00;99.90;;;;;;5078942;28;20450;-51
2023/07/11 10:48:50;;;;;;;11.17;10.67;;;39.10;99.90;;;;;;5078766;28;20410;-50
2023/07/11 10:51:39;;;;;;;12.10;11.60;;;39.30;99.90;;;;;;5078833;28;20800;-53
2023/07/11 10:54:21;;;;;;;11.97;11.37;;;39.50;99.90;;;;;;5070141;28;20917;-54
2023/07/11 10:56:50;;;;;;;11.80;11.23;;;39.70;99.90;;;;;;5073640;28;20450;-53
2023/07/11 10:59:22;;;;;;;12.03;11.50;;;40.20;99.90;;;;;;5079722;28;20415;-57
2023/07/11 11:02:22;;;;;;;11.03;10.53;;;40.20;99.90;;;;;;5078785;28;20431;-51
2023/07/11 11:05:03;;;;;;;11.90;11.40;;;40.30;99.90;;;;;;5025817;28;20461;-53
2023/07/11 11:07:45;;;;;;;12.70;12.00;;;40.30;99.90;;;;;;5075742;28;20460;-53
2023/07/11 11:10:29;;;;;;;11.93;11.43;;;40.30;99.90;;;;;;5078791;28;20445;-53
2023/07/11 11:13:00;;;;;;;12.37;11.67;;;40.50;99.90;;;;;;5078786;28;21054;-51
2023/07/11 11:15:29;;;;;;;13.50;12.90;;;40.70;99.90;;;;;;5075662;28;20418;-49
2023/07/11 11:18:30;;;;;;;11.90;11.33;;;40.30;99.90;;;;;;5068874;28;20422;-50
2023/07/11 11:21:40;;;;;;;12.83;12.20;;;40.40;99.90;;;;;;5040961;28;20431;-53
2023/07/11 11:24:17;;;;;;;11.47;10.97;;;40.70;99.90;;;;;;5038438;28;21120;-50
2023/07/11 11:26:55;;;;;;;12.30;11.80;;;40.80;99.90;;;;;;5076410;28;20962;-56
2023/07/11 11:29:33;;;;;;;13.13;12.53;;;41.10;99.90;;;;;;5082963;28;20442;-51
2023/07/11 11:32:09;;;;;;;12.73;12.13;;;40.70;99.90;;;;;;5082704;28;20426;-54
2023/07/11 11:34:44;;;;;;;11.73;11.23;;;40.80;99.90;;;;;;5081865;28;20447;-47
2023/07/11 11:37:24;;;;;;;12.80;12.13;;;41.10;99.90;;;;;;5082429;28;20981;-48
2023/07/11 11:40:10;;;;;;;12.93;12.33;;;41.30;99.90;;;;;;5069336;28;20904;-50
2023/07/11 11:42:40;;;;;;;11.90;11.40;;;41.50;99.90;;;;;;5080452;28;20508;-43
2023/07/11 11:45:18;;;;;;;13.37;12.77;;;41.80;99.90;;;;;;5075224;28;20927;-50
2023/07/11 11:47:44;;;;;;;11.93;11.33;;;42.00;99.90;;;;;;5079259;28;20409;-54
2023/07/11 11:50:16;;;;;;;12.40;11.90;;;41.90;99.90;;;;;;5081782;28;20809;-52
2023/07/11 11:52:42;;;;;;;12.60;12.07;;;41.90;99.90;;;;;;5082114;28;20430;-49
2023/07/11 11:55:34;;;;;;;13.77;13.17;;;41.50;99.90;;;;;;5073031;28;20417;-56
2023/07/11 11:58:00;;;;;;;13.50;12.80;;;41.80;99.90;;;;;;5082032;28;20450;-50
2023/07/11 12:00:44;;;;;;;12.50;12.00;;;42.00;99.90;;;;;;5080911;28;20924;-51
2023/07/11 12:03:18;;;;;;;14.03;13.17;;;42.00;99.90;;;;;;5081992;28;20479;-52
2023/07/11 12:05:52;;;;;;;13.80;13.13;;;42.20;99.90;;;;;;5081666;28;20440;-50
2023/07/11 12:08:29;;;;;;;13.53;12.93;;;42.40;99.90;;;;;;5081630;28;20414;-53
2023/07/11 12:11:07;;;;;;;13.10;12.40;;;42.70;99.90;;;;;;5081116;28;20417;-53
2023/07/11 12:13:34;;;;;;;12.73;12.17;;;42.80;99.90;;;;;;5077173;28;20888;-51
2023/07/11 12:16:25;;;;;;;12.97;12.37;;;43.40;1.00;;;;;;5081287;28;20547;-50
2023/07/11 12:18:58;;;;;;;14.30;13.60;;;43.30;1.00;;;;;;5078416;28;20520;-50
2023/07/11 12:21:39;;;;;;;13.50;12.90;;;43.40;1.00;;;;;;5079868;28;20430;-51
2023/07/11 12:24:34;;;;;;;13.00;12.40;;;42.80;1.00;;;;;;5081153;28;20414;-48
2023/07/11 12:27:18;;;;;;;14.47;13.77;;;43.00;1.00;;;;;;5080309;28;20445;-56
2023/07/11 12:29:52;;;;;;;14.30;13.63;;;43.20;1.00;;;;;;5081299;28;21169;-51
2023/07/11 12:32:33;;;;;;;13.77;13.07;;;43.40;1.00;;;;;;5061722;28;20783;-52
2023/07/11 12:35:05;;;;;;;14.40;13.70;;;43.40;99.90;;;;;;5078776;28;20471;-50
2023/07/11 12:37:36;;;;;;;13.60;13.00;;;43.40;99.90;;;;;;5077725;28;20567;-53
2023/07/11 12:40:11;;;;;;;13.37;12.77;;;43.40;99.90;;;;;;5068748;28;20738;-47
2023/07/11 12:42:48;;;;;;;14.80;14.00;;;43.20;99.90;;;;;;5075855;28;20410;-54